Time;durP1;ratioP1;P1;durP2;ratioP2;P2;SDS_P1;SDS_P2;PMS_P1;PMS_P2;Temp;Humidity;BMP_temperature;BMP_pressure;BME280_temperature;BME280_humidity;BME280_pressure;Samples;Min_cycle;Max_cycle;Signal;HPM_P1;HPM_P2
2022/11/22 00:00:39;;;;;;;57.10;16.52;;;;;;;6.29;78.35;99055.44;4483755;31;32850;-76
2022/11/22 00:03:07;;;;;;;42.95;15.10;;;;;;;6.08;79.29;99059.50;4494756;31;33978;-75
2022/11/22 00:05:34;;;;;;;47.08;15.50;;;;;;;6.22;78.68;99052.47;4492347;31;33795;-75
2022/11/22 00:08:02;;;;;;;36.30;14.68;;;;;;;6.13;78.94;99049.47;4483530;31;33873;-75
2022/11/22 00:10:30;;;;;;;31.75;15.75;;;;;;;6.07;79.19;99060.34;4484692;31;33413;-76
2022/11/22 00:12:58;;;;;;;33.92;15.43;;;;;;;6.18;78.44;99046.34;4475649;31;33920;-77
2022/11/22 00:15:25;;;;;;;38.00;16.17;;;;;;;6.19;78.82;99045.50;4490916;31;34475;-75
2022/11/22 00:17:53;;;;;;;36.33;16.23;;;;;;;6.18;78.76;99048.00;4489732;31;33802;-78
2022/11/22 00:20:21;;;;;;;44.90;16.75;;;;;;;6.27;78.59;99051.03;4482617;31;33458;-75
2022/11/22 00:22:48;;;;;;;69.10;17.20;;;;;;;6.31;78.64;99058.09;4478915;31;33429;-76
2022/11/22 00:25:16;;;;;;;31.65;15.55;;;;;;;6.28;79.41;99060.53;4484775;31;33756;-78
2022/11/22 00:27:43;;;;;;;43.80;15.80;;;;;;;5.99;80.70;99057.38;4469602;31;34426;-77
2022/11/22 00:30:11;;;;;;;44.63;15.27;;;;;;;5.90;81.04;99051.72;4490988;31;34480;-76
2022/11/22 00:32:38;;;;;;;27.87;13.85;;;;;;;6.18;79.62;99048.00;4484465;31;33966;-75
2022/11/22 00:35:06;;;;;;;30.35;14.23;;;;;;;6.31;78.51;99045.22;4486287;31;33386;-76
2022/11/22 00:37:33;;;;;;;26.85;13.62;;;;;;;6.39;78.08;99036.19;4479139;31;33673;-77
2022/11/22 00:40:02;;;;;;;28.20;13.57;;;;;;;6.21;79.05;99032.72;4487625;31;32431;-76
2022/11/22 00:42:29;;;;;;;32.53;14.30;;;;;;;6.01;79.95;99024.03;4492085;31;34497;-74
2022/11/22 00:44:57;;;;;;;27.92;13.90;;;;;;;5.94;80.17;99025.37;4488032;31;34750;-78
2022/11/22 00:47:24;;;;;;;52.17;16.20;;;;;;;6.02;79.56;99026.66;4486246;31;34641;-77
2022/11/22 00:49:52;;;;;;;55.47;14.98;;;;;;;6.01;79.73;99029.19;4483004;31;33428;-75
2022/11/22 00:52:19;;;;;;;48.65;14.75;;;;;;;5.49;81.22;99038.50;4483634;31;33967;-78
2022/11/22 00:54:47;;;;;;;40.58;14.50;;;;;;;5.66;81.23;99041.97;4480297;32;33971;-74
2022/11/22 00:57:21;;;;;;;29.27;14.03;;;;;;;5.88;79.94;99037.91;4480247;32;33614;-77
2022/11/22 00:59:48;;;;;;;42.97;13.75;;;;;;;5.56;81.97;99042.25;4475313;32;33388;-76
2022/11/22 01:02:16;;;;;;;60.65;14.27;;;;;;;5.63;81.61;99046.94;4480237;32;32289;-75
2022/11/22 01:04:43;;;;;;;26.42;12.55;;;;;;;5.73;81.46;99043.16;4483667;32;33666;-76
2022/11/22 01:07:11;;;;;;;29.37;13.32;;;;;;;5.85;81.29;99043.78;4483123;32;33883;-75
2022/11/22 01:09:39;;;;;;;40.92;13.65;;;;;;;5.58;82.89;99043.25;4477750;32;33452;-76
2022/11/22 01:12:07;;;;;;;37.85;13.32;;;;;;;5.58;83.07;99043.25;4482025;32;33635;-76
2022/11/22 01:14:34;;;;;;;54.17;15.43;;;;;;;5.82;82.04;99053.03;4483474;32;34706;-74
2022/11/22 01:17:02;;;;;;;50.90;14.32;;;;;;;5.89;81.76;99044.81;4482923;32;34358;-78
2022/11/22 01:19:29;;;;;;;33.20;14.80;;;;;;;5.26;84.01;99034.72;4480188;32;34244;-76
2022/11/22 01:21:59;;;;;;;33.58;12.73;;;;;;;5.06;85.31;99035.31;4481515;32;33632;-76
2022/11/22 01:24:26;;;;;;;42.42;12.93;;;;;;;5.29;85.10;99029.75;4481875;32;33976;-75
2022/11/22 01:26:54;;;;;;;35.40;13.27;;;;;;;4.79;86.54;99019.31;4480807;32;34365;-77
2022/11/22 01:29:22;;;;;;;66.47;13.77;;;;;;;4.82;86.15;99020.34;4482775;32;34180;-75
2022/11/22 01:31:49;;;;;;;33.78;12.93;;;;;;;5.10;85.36;99021.88;4482526;32;33772;-76
2022/11/22 01:34:16;;;;;;;46.33;12.80;;;;;;;5.17;84.97;99015.38;4482839;32;32503;-78
2022/11/22 01:36:44;;;;;;;48.08;12.73;;;;;;;5.36;83.88;99023.25;4483335;32;34423;-76
2022/11/22 01:39:11;;;;;;;39.92;12.63;;;;;;;4.91;86.18;99026.00;4485774;32;33717;-76
2022/11/22 01:41:38;;;;;;;29.73;13.05;;;;;;;5.10;85.33;99027.00;4484539;32;34620;-76
2022/11/22 01:44:38;;;;;;;39.42;12.57;;;;;;;4.93;85.95;99019.28;4485602;32;33668;-77
2022/11/22 01:47:23;;;;;;;37.05;12.05;;;;;;;4.88;86.22;99025.81;4470802;32;34096;-77
2022/11/22 01:49:54;;;;;;;38.58;12.10;;;;;;;5.26;84.56;99034.72;4485484;32;33160;-77
2022/11/22 01:52:25;;;;;;;32.20;11.82;;;;;;;5.09;85.58;99022.66;4471606;32;32796;-76
2022/11/22 01:54:59;;;;;;;38.97;11.38;;;;;;;4.75;86.72;99022.50;4479611;32;33738;-78
2022/11/22 01:57:30;;;;;;;31.10;11.80;;;;;;;4.62;87.27;99013.28;4485235;31;33814;-79
2022/11/22 02:00:01;;;;;;;39.03;12.00;;;;;;;4.46;88.21;99014.97;4482923;32;34247;-77
2022/11/22 02:02:32;;;;;;;25.00;12.07;;;;;;;4.82;87.03;99014.34;4484871;32;33650;-75
2022/11/22 02:05:06;;;;;;;27.35;12.07;;;;;;;5.19;84.93;99022.34;4484453;32;33541;-74
2022/11/22 02:07:54;;;;;;;27.37;12.40;;;;;;;4.93;85.96;99020.97;4476290;32;34518;-75
2022/11/22 02:10:24;;;;;;;35.05;12.45;;;;;;;4.88;86.69;99010.41;4483894;32;34264;-77
2022/11/22 02:12:52;;;;;;;34.50;13.32;;;;;;;4.58;87.76;99014.78;4483759;32;34433;-78
2022/11/22 02:15:20;;;;;;;33.90;13.00;;;;;;;4.40;89.40;99009.47;4484236;32;34091;-76
2022/11/22 02:17:47;;;;;;;36.15;13.57;;;;;;;4.55;89.04;99006.03;4484709;32;33885;-77
2022/11/22 02:20:16;;;;;;;33.17;13.57;;;;;;;4.74;87.95;99006.22;4485349;32;34103;-75
2022/11/22 02:22:48;;;;;;;26.80;13.05;;;;;;;4.49;89.04;98994.59;4484637;31;34494;-75
2022/11/22 02:25:25;;;;;;;43.08;13.38;;;;;;;4.39;90.09;99006.84;4482870;32;33666;-75
2022/11/22 02:27:52;;;;;;;44.00;13.88;;;;;;;4.71;89.05;99000.94;4483939;32;33911;-78
2022/11/22 02:30:20;;;;;;;33.22;13.05;;;;;;;5.04;87.49;99006.12;4485374;32;33576;-76
2022/11/22 02:32:47;;;;;;;41.90;14.85;;;;;;;5.09;87.91;98999.56;4484285;32;34484;-76
2022/11/22 02:35:19;;;;;;;46.95;15.05;;;;;;;4.77;88.52;98991.03;4484533;32;34129;-78
2022/11/22 02:37:59;;;;;;;36.08;13.48;;;;;;;5.01;87.62;98993.13;4484130;32;33403;-77
2022/11/22 02:40:31;;;;;;;30.48;14.10;;;;;;;5.34;85.78;98991.47;4461471;32;32245;-76
2022/11/22 02:43:04;;;;;;;31.40;13.55;;;;;;;5.07;87.92;98985.75;4482435;32;33619;-75
2022/11/22 02:45:32;;;;;;;36.72;14.10;;;;;;;5.41;86.54;98983.28;4482810;32;34008;-74
2022/11/22 02:48:07;;;;;;;47.75;16.33;;;;;;;5.56;85.03;98992.56;4484078;32;33700;-76
2022/11/22 02:50:35;;;;;;;37.30;13.88;;;;;;;5.12;87.27;98999.72;4485281;32;33219;-79
2022/11/22 02:53:04;;;;;;;44.10;13.85;;;;;;;5.24;86.64;99000.38;4483389;32;34508;-77
2022/11/22 02:55:31;;;;;;;32.55;13.15;;;;;;;4.88;88.34;98999.28;4484852;32;32679;-77
2022/11/22 02:57:59;;;;;;;30.77;13.25;;;;;;;5.18;87.41;98999.19;4483989;32;34537;-76
2022/11/22 03:00:26;;;;;;;32.60;13.98;;;;;;;4.96;88.42;98992.88;4479377;32;32899;-78
2022/11/22 03:02:54;;;;;;;33.80;14.55;;;;;;;4.78;89.79;98987.63;4481963;32;33730;-75
2022/11/22 03:05:21;;;;;;;37.55;13.93;;;;;;;4.92;89.25;98989.28;4484106;32;33914;-74
2022/11/22 03:07:49;;;;;;;39.60;15.52;;;;;;;5.02;88.99;98987.19;4483201;32;33264;-74
2022/11/22 03:10:17;;;;;;;35.03;15.00;;;;;;;5.43;86.90;98981.69;4485012;32;34122;-78
2022/11/22 03:12:44;;;;;;;39.97;13.88;;;;;;;4.95;89.01;98985.13;4483832;32;33860;-76
2022/11/22 03:15:12;;;;;;;37.08;15.05;;;;;;;5.29;87.43;98986.09;4485143;32;34620;-78
2022/11/22 03:17:39;;;;;;;31.73;13.40;;;;;;;5.53;86.09;98975.31;4484479;32;34631;-77
2022/11/22 03:20:07;;;;;;;37.05;15.90;;;;;;;5.98;84.53;98985.31;4485049;32;33575;-77
2022/11/22 03:22:35;;;;;;;40.53;15.32;;;;;;;5.38;86.51;98987.37;4484582;32;33828;-75
2022/11/22 03:25:03;;;;;;;36.58;15.07;;;;;;;5.36;87.38;98981.28;4484540;32;33920;-75
2022/11/22 03:27:30;;;;;;;42.60;15.68;;;;;;;5.02;88.67;98992.31;4481485;32;34662;-79
2022/11/22 03:29:58;;;;;;;42.25;16.52;;;;;;;5.15;88.14;98984.47;4484610;32;33696;-78
2022/11/22 03:32:25;;;;;;;35.65;14.77;;;;;;;5.43;88.15;98975.66;4483317;32;34572;-78
2022/11/22 03:34:52;;;;;;;34.83;15.18;;;;;;;5.66;86.99;98980.28;4483574;32;33437;-76
2022/11/22 03:37:20;;;;;;;39.30;15.38;;;;;;;5.40;87.08;98988.34;4483853;32;33926;-78
2022/11/22 03:39:47;;;;;;;37.25;16.70;;;;;;;5.45;86.27;98986.91;4484062;32;33878;-76
2022/11/22 03:42:15;;;;;;;36.65;15.35;;;;;;;5.57;87.44;98984.97;4483781;32;33859;-76
2022/11/22 03:44:48;;;;;;;37.35;16.42;;;;;;;5.26;87.64;98973.09;4483138;32;34056;-76
2022/11/22 03:47:16;;;;;;;37.50;15.80;;;;;;;5.35;87.99;98970.13;4480531;32;34669;-79
2022/11/22 03:49:44;;;;;;;41.50;17.02;;;;;;;5.29;87.71;98973.25;4484817;32;33490;-76
2022/11/22 03:52:14;;;;;;;39.40;15.85;;;;;;;5.53;87.08;98962.50;4482371;32;33804;-76
2022/11/22 03:54:41;;;;;;;37.00;16.15;;;;;;;5.97;85.54;98966.44;4484458;32;33943;-77
2022/11/22 03:57:08;;;;;;;41.22;16.60;;;;;;;5.73;85.51;98955.78;4484418;32;34447;-77
2022/11/22 03:59:36;;;;;;;41.37;16.20;;;;;;;5.12;89.17;98963.78;4483357;32;33092;-78
2022/11/22 04:02:03;;;;;;;36.00;15.98;;;;;;;5.53;87.21;98959.91;4484076;32;33746;-76
2022/11/22 04:04:31;;;;;;;37.55;16.58;;;;;;;5.32;88.13;98962.25;4483175;32;34291;-78
2022/11/22 04:06:59;;;;;;;33.13;15.98;;;;;;;5.36;87.93;98968.44;4482951;32;32337;-79
2022/11/22 04:09:26;;;;;;;34.83;15.75;;;;;;;5.13;88.80;98962.97;4483504;32;33388;-77
2022/11/22 04:11:54;;;;;;;40.85;17.42;;;;;;;5.28;88.41;98966.34;4479663;32;33675;-79
2022/11/22 04:17:11;;;;;;;31.62;15.90;;;;;;;5.03;89.04;98959.03;4484621;32;34108;-78
2022/11/22 04:21:32;;;;;;;34.28;16.40;;;;;;;5.53;86.24;98962.50;4484439;32;33828;-79
2022/11/22 04:22:26;;;;;;;30.95;14.87;;;;;;;5.43;86.43;98960.25;4484141;32;33341;-75
2022/11/22 04:27:39;;;;;;;33.72;14.65;;;;;;;5.26;86.52;98962.81;4473869;32;34002;-75
2022/11/22 04:30:07;;;;;;;34.53;15.60;;;;;;;5.03;87.58;98958.16;4483833;32;34355;-77
2022/11/22 04:32:46;;;;;;;31.27;15.43;;;;;;;5.30;86.09;98962.16;4484440;32;33732;-78
2022/11/22 04:35:15;;;;;;;33.20;15.75;;;;;;;5.34;85.47;98955.50;4482310;32;33609;-79
2022/11/22 04:37:49;;;;;;;30.65;15.23;;;;;;;5.40;85.15;98965.22;4484165;32;34009;-78
2022/11/22 04:40:17;;;;;;;32.88;16.37;;;;;;;5.53;84.34;98954.78;4483408;32;33338;-78
2022/11/22 04:45:31;;;;;;;30.05;16.08;;;;;;;5.13;84.77;98952.72;4484256;32;33207;-76
2022/11/22 04:47:58;;;;;;;30.33;15.18;;;;;;;4.95;85.93;98950.06;4482453;32;34558;-77
2022/11/22 04:53:33;;;;;;;34.28;16.30;;;;;;;5.27;85.21;98945.72;4415689;32;33669;-76
2022/11/22 04:56:00;;;;;;;32.53;15.77;;;;;;;4.88;85.49;98953.09;4423510;32;33306;-78
2022/11/22 04:58:28;;;;;;;34.33;16.52;;;;;;;4.76;86.84;98953.31;4446751;32;34960;-75
2022/11/22 05:00:55;;;;;;;28.73;14.48;;;;;;;4.64;86.88;98963.81;4483939;32;33817;-77
2022/11/22 05:03:23;;;;;;;31.35;15.82;;;;;;;4.91;85.21;98972.09;4483793;32;34391;-78
2022/11/22 05:05:50;;;;;;;31.30;16.15;;;;;;;4.70;86.24;98970.94;4482466;32;33886;-79
2022/11/22 05:08:18;;;;;;;31.10;15.55;;;;;;;5.39;83.25;98960.88;4483091;32;34094;-75
2022/11/22 05:10:58;;;;;;;28.30;15.38;;;;;;;4.53;86.66;98949.50;4483055;32;33306;-76
2022/11/22 05:13:34;;;;;;;28.62;15.43;;;;;;;4.44;87.59;98964.37;4482443;32;33596;-77
2022/11/22 05:16:03;;;;;;;29.80;15.88;;;;;;;4.50;86.14;98954.44;4484145;32;33443;-79
2022/11/22 05:18:31;;;;;;;27.70;15.85;;;;;;;4.13;86.89;98972.91;4482966;32;33370;-76
2022/11/22 05:21:07;;;;;;;30.02;15.55;;;;;;;3.99;88.40;98959.31;4481910;32;33340;-75
2022/11/22 05:23:53;;;;;;;28.58;14.65;;;;;;;4.44;86.75;98980.66;4479624;32;33924;-77
2022/11/22 05:26:34;;;;;;;27.58;15.35;;;;;;;4.12;87.14;98969.47;4480939;32;33691;-78
2022/11/22 05:29:07;;;;;;;29.48;15.10;;;;;;;5.11;83.12;98972.28;4482140;32;33805;-78
2022/11/22 05:31:36;;;;;;;27.00;14.27;;;;;;;4.39;85.83;98974.41;4479480;32;33286;-77
2022/11/22 05:34:04;;;;;;;28.90;14.93;;;;;;;4.27;85.60;98982.28;4482510;32;32512;-78
2022/11/22 05:36:33;;;;;;;29.63;16.33;;;;;;;4.28;86.20;98975.47;4483376;32;33988;-77
2022/11/22 05:39:01;;;;;;;28.70;15.90;;;;;;;4.36;85.11;98961.38;4483517;32;34597;-79
2022/11/22 05:41:29;;;;;;;27.50;14.65;;;;;;;4.42;84.45;98966.84;4483638;32;34391;-75
2022/11/22 05:43:56;;;;;;;27.83;14.85;;;;;;;4.27;84.67;98941.28;4483509;32;34441;-78
2022/11/22 05:46:26;;;;;;;25.83;14.50;;;;;;;4.44;83.92;98944.78;4482718;32;33604;-76
2022/11/22 05:48:55;;;;;;;26.77;14.40;;;;;;;4.06;85.23;98951.19;4483706;32;33847;-76
2022/11/22 05:51:26;;;;;;;24.55;14.65;;;;;;;3.89;86.68;98962.16;4483620;32;33479;-79
2022/11/22 05:54:01;;;;;;;27.23;15.20;;;;;;;3.96;86.50;98974.53;4483280;32;33331;-77
2022/11/22 05:56:29;;;;;;;29.35;15.35;;;;;;;4.31;83.59;98979.09;4483376;32;33956;-78
2022/11/22 05:58:56;;;;;;;26.23;14.93;;;;;;;4.09;85.00;98986.34;4482544;32;33408;-76
2022/11/22 06:01:24;;;;;;;26.20;13.52;;;;;;;4.05;85.26;98985.28;4482045;32;33535;-76
2022/11/22 06:03:53;;;;;;;27.75;14.48;;;;;;;4.07;84.09;98988.81;4476231;32;33949;-78
2022/11/22 06:06:20;;;;;;;25.23;14.10;;;;;;;4.52;82.69;98989.66;4481389;32;34488;-78
2022/11/22 06:08:48;;;;;;;24.98;14.87;;;;;;;4.03;83.82;98980.88;4477961;32;33898;-78
2022/11/22 06:11:17;;;;;;;23.50;13.45;;;;;;;3.71;85.52;98983.34;4482136;32;33225;-75
2022/11/22 06:13:46;;;;;;;25.00;14.02;;;;;;;3.88;84.81;98991.12;4481623;32;34624;-77
2022/11/22 06:16:14;;;;;;;25.50;12.63;;;;;;;3.76;84.96;98990.44;4461933;32;33634;-74
2022/11/22 06:18:42;;;;;;;23.90;13.45;;;;;;;3.61;86.30;99001.56;4476671;32;34514;-77
2022/11/22 06:21:12;;;;;;;23.62;12.98;;;;;;;4.07;84.39;99004.19;4482587;32;33156;-76
2022/11/22 06:23:39;;;;;;;24.12;12.95;;;;;;;3.96;83.96;98995.03;4483791;32;34649;-74
2022/11/22 06:26:09;;;;;;;24.77;13.43;;;;;;;4.10;83.57;98993.25;4477054;32;33950;-77
2022/11/22 06:28:38;;;;;;;25.70;13.32;;;;;;;3.92;85.12;98987.94;4476752;32;33680;-76
2022/11/22 06:31:08;;;;;;;23.77;12.73;;;;;;;4.07;84.29;98985.38;4484994;32;34286;-75
2022/11/22 06:33:36;;;;;;;26.02;14.70;;;;;;;3.64;86.13;98985.47;4482667;32;32924;-76
2022/11/22 06:36:08;;;;;;;27.65;15.20;;;;;;;3.69;85.73;98973.78;4482800;31;33377;-77
2022/11/22 06:38:37;;;;;;;26.35;14.30;;;;;;;3.25;88.56;98985.75;4483236;32;34088;-77
2022/11/22 06:41:06;;;;;;;25.65;13.60;;;;;;;3.43;88.26;98974.84;4483439;31;33414;-78
2022/11/22 06:43:35;;;;;;;28.12;13.80;;;;;;;3.35;88.74;98992.31;4486569;31;34544;-78
2022/11/22 06:46:03;;;;;;;28.48;14.95;;;;;;;3.28;89.65;98985.94;4494177;31;33365;-75
2022/11/22 06:48:33;;;;;;;27.73;14.70;;;;;;;3.48;89.22;98989.69;4490876;31;33684;-78
2022/11/22 06:51:12;;;;;;;31.12;15.18;;;;;;;3.47;89.47;98994.72;4496010;31;32784;-77
2022/11/22 06:53:40;;;;;;;23.50;13.50;;;;;;;4.06;87.14;99001.56;4488149;31;33779;-76
2022/11/22 06:56:17;;;;;;;27.40;14.30;;;;;;;3.49;89.75;98985.44;4483335;31;33236;-77
2022/11/22 06:58:45;;;;;;;27.00;14.48;;;;;;;3.77;88.54;98987.97;4479477;31;32757;-75
2022/11/22 07:01:18;;;;;;;25.67;14.13;;;;;;;3.72;89.43;98979.13;4492115;31;33399;-78
2022/11/22 07:03:46;;;;;;;31.67;15.43;;;;;;;3.73;89.54;98989.44;4487031;31;33529;-75
2022/11/22 07:06:15;;;;;;;26.12;14.73;;;;;;;3.83;88.88;98990.00;4490546;31;34683;-75
2022/11/22 07:08:43;;;;;;;29.90;15.23;;;;;;;3.86;88.90;98987.59;4489543;31;34095;-76
2022/11/22 07:11:14;;;;;;;27.52;15.13;;;;;;;3.77;89.75;98987.06;4497468;31;33276;-76
2022/11/22 07:13:42;;;;;;;26.23;13.85;;;;;;;3.98;87.79;98988.31;4484613;32;33613;-77
2022/11/22 07:16:11;;;;;;;27.42;13.62;;;;;;;4.21;86.39;98983.59;4485077;32;33927;-75
2022/11/22 07:18:39;;;;;;;23.27;13.68;;;;;;;4.26;86.44;98984.75;4485458;32;34069;-78
2022/11/22 07:21:27;;;;;;;25.00;13.23;;;;;;;4.06;86.78;98989.63;4484322;32;33237;-74
2022/11/22 07:23:55;;;;;;;27.27;13.02;;;;;;;3.89;88.48;98982.66;4484976;32;34019;-76
2022/11/22 07:26:24;;;;;;;23.42;13.27;;;;;;;3.98;88.24;98985.75;4476745;32;33717;-75
2022/11/22 07:28:51;;;;;;;26.08;13.25;;;;;;;3.92;87.06;98988.84;4479442;32;33508;-76
2022/11/22 07:31:19;;;;;;;22.42;12.82;;;;;;;3.99;88.16;98990.06;4485151;32;33373;-73
2022/11/22 07:33:47;;;;;;;29.67;13.60;;;;;;;4.00;88.25;98991.84;4481345;32;34674;-75
2022/11/22 07:36:16;;;;;;;28.23;13.90;;;;;;;4.01;87.44;98998.72;4484632;32;34654;-76
2022/11/22 07:38:45;;;;;;;26.52;14.25;;;;;;;4.02;87.06;98995.37;4484266;32;32937;-75
2022/11/22 07:41:13;;;;;;;25.75;12.95;;;;;;;4.31;86.34;98996.16;4484169;32;34488;-76
2022/11/22 07:43:40;;;;;;;23.98;13.13;;;;;;;5.04;83.13;98996.75;4481206;32;35181;-75
2022/11/22 07:46:37;;;;;;;24.55;12.35;;;;;;;4.59;85.09;98992.56;4475604;32;34168;-77
2022/11/22 07:49:05;;;;;;;27.67;13.62;;;;;;;4.30;85.71;98987.56;4473814;31;33496;-77
2022/11/22 07:51:32;;;;;;;23.60;12.43;;;;;;;4.56;85.80;98994.94;4484669;32;33334;-74
2022/11/22 07:54:02;;;;;;;25.58;12.95;;;;;;;4.55;85.29;99004.34;4482553;32;33635;-77
2022/11/22 07:56:29;;;;;;;25.15;12.57;;;;;;;4.39;85.79;98992.34;4480247;32;34519;-77
2022/11/22 07:58:57;;;;;;;25.20;13.10;;;;;;;4.43;86.32;98986.59;4480490;31;33832;-77
2022/11/22 08:01:24;;;;;;;26.27;12.48;;;;;;;4.32;86.62;98987.66;4486430;31;33484;-77
2022/11/22 08:03:52;;;;;;;27.67;12.93;;;;;;;4.61;85.28;98984.16;4483525;32;33331;-76
2022/11/22 08:06:19;;;;;;;22.00;11.60;;;;;;;4.57;85.43;98986.47;4484406;32;34520;-77
2022/11/22 08:08:46;;;;;;;24.30;13.15;;;;;;;4.76;84.93;98983.25;4482089;31;33746;-74
2022/11/22 08:11:14;;;;;;;25.20;12.75;;;;;;;4.85;83.69;98974.34;4486263;31;32173;-74
2022/11/22 08:13:42;;;;;;;25.17;12.90;;;;;;;5.46;81.74;98980.94;4485668;31;33932;-74
2022/11/22 08:16:12;;;;;;;26.33;12.23;;;;;;;5.07;83.05;98983.19;4488108;31;34528;-77
2022/11/22 08:18:41;;;;;;;26.40;13.25;;;;;;;4.65;84.28;98965.56;4493505;31;35599;-77
2022/11/22 08:21:10;;;;;;;24.90;12.48;;;;;;;5.00;83.72;98976.84;4480089;31;33365;-78
2022/11/22 08:23:39;;;;;;;26.90;13.35;;;;;;;5.06;83.22;98968.56;4484315;31;34512;-77
2022/11/22 08:26:08;;;;;;;25.85;13.05;;;;;;;5.01;82.95;98962.34;4488040;31;33641;-75
2022/11/22 08:28:36;;;;;;;23.17;13.45;;;;;;;4.97;84.55;98970.69;4483592;31;33839;-78
2022/11/22 08:31:05;;;;;;;29.17;13.65;;;;;;;4.90;83.59;98972.91;4484560;31;34416;-75
2022/11/22 08:33:33;;;;;;;26.17;12.45;;;;;;;4.95;84.65;98980.00;4484523;31;34586;-75
2022/11/22 08:36:01;;;;;;;28.12;13.70;;;;;;;5.11;83.41;98987.69;4489457;31;33486;-76
2022/11/22 08:38:28;;;;;;;28.05;13.07;;;;;;;4.73;84.67;98979.72;4487590;31;33635;-76
2022/11/22 08:40:56;;;;;;;25.15;12.68;;;;;;;4.64;85.81;98983.44;4473103;32;32980;-76
2022/11/22 08:43:23;;;;;;;22.87;12.50;;;;;;;4.77;85.57;98983.31;4479211;31;33631;-74
2022/11/22 08:45:56;;;;;;;26.37;12.80;;;;;;;4.96;85.10;98984.31;4483792;32;33594;-75
2022/11/22 08:48:25;;;;;;;27.08;13.10;;;;;;;5.13;84.42;98978.38;4475040;32;33645;-74
2022/11/22 08:50:54;;;;;;;24.50;12.93;;;;;;;4.80;85.47;98975.78;4482718;31;33457;-77
2022/11/22 08:53:21;;;;;;;22.73;11.45;;;;;;;5.10;83.84;98967.97;4483718;32;33803;-77
2022/11/22 08:55:50;;;;;;;25.90;13.05;;;;;;;5.01;85.13;98970.03;4484041;32;34580;-77
2022/11/22 08:58:18;;;;;;;27.77;12.60;;;;;;;5.21;84.19;98966.81;4481523;31;34656;-77
2022/11/22 09:00:45;;;;;;;25.42;13.62;;;;;;;5.27;83.95;98977.44;4483967;31;33412;-74
2022/11/22 09:03:13;;;;;;;23.92;12.48;;;;;;;4.65;86.28;98964.69;4485683;31;33747;-76
2022/11/22 09:05:40;;;;;;;23.95;11.68;;;;;;;4.90;85.28;98972.03;4484590;31;33584;-76
2022/11/22 09:08:28;;;;;;;27.40;12.80;;;;;;;5.04;84.86;98977.88;4491094;31;34483;-77
2022/11/22 09:11:06;;;;;;;23.20;12.30;;;;;;;5.04;85.13;98968.53;4493716;31;33232;-74
2022/11/22 09:13:34;;;;;;;23.15;11.80;;;;;;;5.11;85.26;98959.44;4486417;31;33619;-76
2022/11/22 09:16:03;;;;;;;25.35;13.07;;;;;;;5.08;85.58;98957.63;4493224;31;33549;-75
2022/11/22 09:18:31;;;;;;;26.17;12.10;;;;;;;5.01;85.62;98950.38;4490858;31;34240;-76
2022/11/22 09:21:10;;;;;;;26.92;12.57;;;;;;;5.27;85.06;98949.19;4487579;31;33660;-76
2022/11/22 09:23:37;;;;;;;26.42;12.90;;;;;;;5.24;85.25;98943.88;4480526;31;34829;-76
2022/11/22 09:26:08;;;;;;;24.33;12.43;;;;;;;4.89;86.30;98948.06;4490107;31;34383;-77
2022/11/22 09:28:36;;;;;;;28.42;11.93;;;;;;;5.49;84.18;98952.88;4489948;31;33504;-76
2022/11/22 09:31:09;;;;;;;27.62;13.13;;;;;;;5.38;84.89;98951.44;4482992;31;32879;-77
2022/11/22 09:33:39;;;;;;;26.80;12.30;;;;;;;5.38;85.57;98936.88;4484603;31;34506;-76
2022/11/22 09:36:09;;;;;;;24.92;12.32;;;;;;;5.56;84.35;98929.22;4491449;31;34602;-77
2022/11/22 09:38:37;;;;;;;24.50;11.88;;;;;;;5.63;83.80;98928.75;4470352;31;33811;-78
2022/11/22 09:41:19;;;;;;;24.73;12.65;;;;;;;5.68;83.93;98927.28;4486606;31;34022;-76
2022/11/22 09:44:17;;;;;;;28.75;12.70;;;;;;;5.49;84.73;98927.19;4477728;31;34685;-74
2022/11/22 09:46:58;;;;;;;27.00;13.30;;;;;;;5.85;83.26;98915.28;4488841;31;34729;-75
2022/11/22 09:49:29;;;;;;;28.33;12.75;;;;;;;5.87;83.39;98918.81;4485077;31;33432;-77
2022/11/22 09:52:03;;;;;;;27.33;12.77;;;;;;;6.13;82.22;98915.78;4483913;31;33411;-75
2022/11/22 09:54:41;;;;;;;28.00;13.82;;;;;;;6.49;81.55;98920.09;4488628;31;33508;-78
2022/11/22 09:57:13;;;;;;;28.70;13.43;;;;;;;6.43;81.85;98912.09;4483826;31;33806;-77
2022/11/22 09:59:45;;;;;;;26.52;13.25;;;;;;;6.71;80.11;98902.19;4473943;31;34486;-76
2022/11/22 10:02:24;;;;;;;27.92;13.05;;;;;;;6.34;82.93;98898.78;4484327;32;33492;-78
2022/11/22 10:04:56;;;;;;;30.48;12.82;;;;;;;6.74;81.04;98908.34;4479740;32;33674;-75
2022/11/22 10:07:35;;;;;;;28.52;13.38;;;;;;;6.39;82.57;98902.44;4478848;32;33697;-77
2022/11/22 10:10:07;;;;;;;29.73;13.68;;;;;;;6.74;81.43;98898.06;4483062;32;34664;-75
2022/11/22 10:12:44;;;;;;;30.48;14.35;;;;;;;6.77;80.64;98900.75;4477686;32;33486;-74
2022/11/22 10:15:28;;;;;;;26.45;13.82;;;;;;;6.72;80.81;98888.47;4477358;32;33726;-77
2022/11/22 10:18:35;;;;;;;26.75;14.05;;;;;;;6.60;82.11;98884.53;4468577;32;31883;-77
2022/11/22 10:21:04;;;;;;;30.95;14.32;;;;;;;6.83;80.89;98880.44;4483463;32;33825;-75
2022/11/22 10:23:31;;;;;;;29.05;15.07;;;;;;;6.95;80.34;98886.94;4469404;32;34028;-76
2022/11/22 10:26:04;;;;;;;28.75;14.10;;;;;;;6.71;81.28;98885.03;4474848;32;33560;-74
2022/11/22 10:28:36;;;;;;;28.95;13.88;;;;;;;6.72;81.47;98883.34;4481420;32;33747;-78
2022/11/22 10:31:14;;;;;;;30.67;13.95;;;;;;;6.72;81.24;98873.91;4479666;32;33982;-77
2022/11/22 10:33:56;;;;;;;28.75;13.52;;;;;;;6.66;81.36;98877.12;4476646;32;33184;-77
2022/11/22 10:36:42;;;;;;;24.65;12.57;;;;;;;6.78;80.65;98869.06;4468065;32;33609;-75
2022/11/22 10:39:18;;;;;;;30.88;13.62;;;;;;;6.93;80.01;98857.69;4479951;32;33980;-75
2022/11/22 10:42:24;;;;;;;28.12;13.55;;;;;;;6.86;80.80;98847.12;4468777;32;33293;-77
2022/11/22 10:45:14;;;;;;;30.88;13.80;;;;;;;6.70;81.08;98854.94;4467966;32;33901;-75
2022/11/22 10:48:03;;;;;;;30.15;13.88;;;;;;;6.77;80.61;98836.41;4481004;32;33609;-75
2022/11/22 10:50:51;;;;;;;33.38;14.73;;;;;;;6.96;79.56;98832.06;4482350;32;33637;-78
2022/11/22 10:53:28;;;;;;;30.73;14.52;;;;;;;6.84;79.89;98838.44;4480040;32;33796;-75
2022/11/22 10:56:14;;;;;;;29.95;14.50;;;;;;;6.95;79.94;98825.16;4482246;32;32943;-74
2022/11/22 10:59:03;;;;;;;28.80;13.62;;;;;;;7.09;79.85;98830.09;4474177;32;33701;-77
2022/11/22 11:01:39;;;;;;;30.50;14.73;;;;;;;7.21;79.21;98819.44;4479775;32;33994;-74
2022/11/22 11:04:08;;;;;;;29.23;14.87;;;;;;;7.58;78.40;98815.78;4476379;32;33520;-78
2022/11/22 11:06:41;;;;;;;30.48;14.27;;;;;;;7.57;78.31;98801.16;4470954;32;33555;-78
2022/11/22 11:09:33;;;;;;;29.35;14.70;;;;;;;7.10;79.49;98789.75;4478962;32;33492;-76
2022/11/22 11:12:33;;;;;;;32.15;14.40;;;;;;;7.33;79.00;98792.41;4480541;32;33952;-77
2022/11/22 11:15:04;;;;;;;30.10;14.45;;;;;;;7.56;78.57;98795.94;4464164;32;33096;-76
2022/11/22 11:17:37;;;;;;;30.55;13.93;;;;;;;7.42;78.58;98790.22;4476547;32;34214;-78
2022/11/22 11:20:16;;;;;;;29.63;14.40;;;;;;;7.78;77.35;98792.50;4481166;32;34469;-75
2022/11/22 11:22:43;;;;;;;26.85;14.93;;;;;;;7.50;78.16;98788.84;4475585;32;34061;-77
2022/11/22 11:25:39;;;;;;;30.02;14.32;;;;;;;7.74;77.67;98786.34;4478144;32;33545;-76
2022/11/22 11:28:19;;;;;;;31.87;13.80;;;;;;;7.80;77.57;98785.72;4481292;32;32927;-78
2022/11/22 11:30:52;;;;;;;28.60;15.23;;;;;;;7.91;76.63;98778.41;4481787;32;33708;-77
2022/11/22 11:33:26;;;;;;;31.30;15.02;;;;;;;7.79;77.61;98768.50;4467943;32;34513;-76
2022/11/22 11:36:03;;;;;;;27.10;14.63;;;;;;;7.58;78.54;98769.41;4476200;32;33818;-77
2022/11/22 11:38:39;;;;;;;28.75;15.73;;;;;;;7.71;77.53;98759.56;4479908;32;35658;-77
2022/11/22 11:41:25;;;;;;;26.77;14.57;;;;;;;7.83;77.82;98765.22;4481350;32;34554;-76
2022/11/22 11:43:55;;;;;;;28.38;15.35;;;;;;;7.91;77.48;98755.22;4479092;32;34187;-76
2022/11/22 11:46:24;;;;;;;29.10;14.35;;;;;;;7.97;76.68;98758.87;4481899;32;34473;-78
2022/11/22 11:49:08;;;;;;;27.58;14.45;;;;;;;8.25;75.40;98749.63;4482195;32;33301;-76
2022/11/22 11:51:38;;;;;;;28.40;15.50;;;;;;;7.62;77.67;98750.66;4479160;32;33834;-78
2022/11/22 11:54:17;;;;;;;26.33;15.23;;;;;;;8.10;76.32;98741.31;4481088;32;33662;-77